Time;durP1;ratioP1;P1;durP2;ratioP2;P2;SDS_P1;SDS_P2;PMS_P1;PMS_P2;Temp;Humidity;BMP_temperature;BMP_pressure;BME280_temperature;BME280_humidity;BME280_pressure;Samples;Min_cycle;Max_cycle;Signal;HPM_P1;HPM_P2
2022/03/31 00:00:35;;;;;;;9.57;4.47;;;5.00;61.70;;;;;;5053269;28;20037;-70
2022/03/31 00:03:04;;;;;;;12.23;4.28;;;5.10;61.90;;;;;;5056745;28;20875;-70
2022/03/31 00:05:30;;;;;;;12.70;4.85;;;5.10;61.80;;;;;;5057549;28;20098;-69
2022/03/31 00:08:00;;;;;;;9.93;4.55;;;5.10;61.60;;;;;;5053171;28;20036;-69
2022/03/31 00:10:32;;;;;;;10.48;4.38;;;5.10;61.70;;;;;;5040827;28;20044;-70
2022/03/31 00:12:59;;;;;;;9.50;4.90;;;5.10;61.90;;;;;;5060978;28;20048;-68
2022/03/31 00:15:27;;;;;;;8.45;4.70;;;5.10;62.20;;;;;;5041385;28;20024;-69
2022/03/31 00:17:53;;;;;;;10.68;4.18;;;5.10;62.20;;;;;;5061222;28;20461;-70
2022/03/31 00:20:19;;;;;;;8.82;4.60;;;5.10;62.20;;;;;;5062492;28;20047;-69
2022/03/31 00:22:45;;;;;;;9.13;4.47;;;5.10;62.10;;;;;;5041136;28;20067;-69
2022/03/31 00:25:11;;;;;;;8.75;4.43;;;5.00;62.20;;;;;;5060382;28;20063;-69
2022/03/31 00:27:38;;;;;;;8.35;4.45;;;4.90;62.10;;;;;;5061559;28;20086;-69
2022/03/31 00:30:06;;;;;;;9.50;4.78;;;4.80;62.40;;;;;;5061343;28;20048;-69
2022/03/31 00:32:33;;;;;;;10.48;4.53;;;4.70;63.00;;;;;;5060634;28;20040;-69
2022/03/31 00:34:59;;;;;;;5.70;4.13;;;4.70;63.00;;;;;;5062605;28;20515;-68
2022/03/31 00:37:25;;;;;;;8.73;4.13;;;4.60;62.90;;;;;;5057132;28;20090;-69
2022/03/31 00:39:51;;;;;;;8.55;4.20;;;4.60;62.90;;;;;;5057877;28;20776;-68
2022/03/31 00:42:16;;;;;;;7.72;4.18;;;4.60;63.10;;;;;;5058984;28;20032;-69
2022/03/31 00:44:43;;;;;;;9.77;4.68;;;4.50;63.40;;;;;;5060479;28;20052;-69
2022/03/31 00:47:09;;;;;;;6.40;3.83;;;4.40;63.20;;;;;;5060414;28;20835;-69
2022/03/31 00:49:34;;;;;;;8.30;4.10;;;4.40;63.70;;;;;;5045132;28;20074;-68
2022/03/31 00:52:00;;;;;;;8.73;4.57;;;4.30;63.50;;;;;;5042336;28;20033;-69
2022/03/31 00:54:27;;;;;;;15.38;4.78;;;4.40;63.50;;;;;;5058883;28;20029;-68
2022/03/31 00:56:55;;;;;;;8.02;4.57;;;4.30;63.70;;;;;;5055998;28;20397;-69
2022/03/31 00:59:21;;;;;;;10.25;4.45;;;4.20;63.80;;;;;;5059637;28;20128;-69
2022/03/31 01:01:49;;;;;;;6.90;3.83;;;4.10;64.10;;;;;;5059754;28;20150;-69
2022/03/31 01:04:15;;;;;;;7.38;4.03;;;4.00;64.20;;;;;;5062416;28;20036;-68
2022/03/31 01:06:44;;;;;;;7.75;4.07;;;4.00;64.60;;;;;;5061447;28;20051;-69
2022/03/31 01:09:12;;;;;;;10.02;4.90;;;3.90;64.40;;;;;;5059874;28;20400;-69
2022/03/31 01:11:39;;;;;;;9.82;4.35;;;3.90;64.30;;;;;;5047999;28;20029;-70
2022/03/31 01:14:06;;;;;;;10.48;4.40;;;3.90;64.40;;;;;;5033595;28;20071;-68
2022/03/31 01:16:33;;;;;;;10.00;4.32;;;3.80;64.40;;;;;;5054675;28;20020;-69
2022/03/31 01:19:03;;;;;;;10.38;4.10;;;3.80;64.50;;;;;;5060117;28;20111;-68
2022/03/31 01:21:29;;;;;;;9.63;4.55;;;3.90;64.30;;;;;;5061268;28;20031;-68
2022/03/31 01:23:55;;;;;;;9.75;4.03;;;3.80;64.60;;;;;;5061861;28;20032;-68
2022/03/31 01:26:21;;;;;;;6.53;4.07;;;3.80;64.30;;;;;;5061801;28;20039;-70
2022/03/31 01:28:47;;;;;;;6.60;3.78;;;3.80;64.40;;;;;;5055542;28;20396;-69
2022/03/31 01:31:13;;;;;;;9.27;4.35;;;3.70;64.70;;;;;;5056081;28;20048;-69
2022/03/31 01:33:41;;;;;;;9.82;4.30;;;3.70;64.60;;;;;;5058629;28;20082;-70
2022/03/31 01:36:07;;;;;;;9.02;4.85;;;3.70;65.00;;;;;;5058701;28;20500;-70
2022/03/31 01:38:33;;;;;;;9.10;4.47;;;3.60;64.80;;;;;;5060940;28;20036;-69
2022/03/31 01:41:00;;;;;;;8.98;4.85;;;3.60;64.80;;;;;;5058235;28;20035;-69
2022/03/31 01:43:26;;;;;;;10.57;5.68;;;3.60;65.00;;;;;;5060359;28;20071;-68
2022/03/31 01:45:53;;;;;;;12.32;4.85;;;3.60;64.50;;;;;;5041902;28;20035;-69
2022/03/31 01:48:19;;;;;;;7.03;4.70;;;3.60;64.60;;;;;;5056806;28;20047;-69
2022/03/31 01:50:45;;;;;;;10.82;4.90;;;3.60;64.80;;;;;;5059039;28;20063;-69
2022/03/31 01:53:14;;;;;;;8.27;4.80;;;3.50;65.00;;;;;;5042659;28;20032;-69
2022/03/31 01:55:40;;;;;;;8.38;5.05;;;3.50;65.20;;;;;;5059103;28;20029;-69
2022/03/31 01:58:07;;;;;;;7.40;4.82;;;3.50;65.20;;;;;;5039752;28;20027;-69
2022/03/31 02:00:33;;;;;;;9.13;4.75;;;3.50;65.20;;;;;;5058249;28;20037;-68
2022/03/31 02:03:02;;;;;;;8.98;4.35;;;3.40;65.00;;;;;;5059310;28;20028;-69
2022/03/31 02:05:28;;;;;;;17.50;5.57;;;3.40;65.20;;;;;;5059983;28;20029;-69
2022/03/31 02:07:55;;;;;;;7.78;4.32;;;3.40;65.20;;;;;;5059713;28;20036;-69
2022/03/31 02:10:21;;;;;;;8.95;4.70;;;3.30;65.40;;;;;;5042743;28;20036;-69
2022/03/31 02:12:48;;;;;;;9.75;4.38;;;3.30;65.50;;;;;;5055500;28;20047;-69
2022/03/31 02:15:14;;;;;;;7.38;4.90;;;3.20;65.70;;;;;;5055859;28;20621;-69
2022/03/31 02:17:41;;;;;;;8.85;4.78;;;3.30;65.50;;;;;;5057869;28;20040;-69
2022/03/31 02:20:08;;;;;;;8.75;4.43;;;3.20;65.70;;;;;;5046497;28;20053;-70
2022/03/31 02:22:33;;;;;;;9.40;4.35;;;3.20;65.70;;;;;;5060610;28;20032;-68
2022/03/31 02:24:59;;;;;;;8.27;4.68;;;3.10;65.50;;;;;;5060300;28;20043;-69
2022/03/31 02:27:25;;;;;;;12.98;4.80;;;3.10;65.70;;;;;;5057678;28;20037;-69
2022/03/31 02:29:51;;;;;;;8.23;4.28;;;3.10;66.00;;;;;;5054523;28;20051;-69
2022/03/31 02:32:16;;;;;;;7.45;4.10;;;3.00;65.80;;;;;;5058114;28;20520;-69
2022/03/31 02:34:42;;;;;;;11.25;5.25;;;3.00;65.70;;;;;;5056909;28;20119;-69
2022/03/31 02:37:08;;;;;;;7.50;4.28;;;3.00;65.70;;;;;;5056264;28;20086;-69
2022/03/31 02:39:34;;;;;;;9.90;4.57;;;2.90;65.90;;;;;;5059464;28;20037;-68
2022/03/31 02:42:01;;;;;;;7.22;4.45;;;2.90;65.90;;;;;;5058111;28;20029;-68
2022/03/31 02:44:27;;;;;;;8.77;4.28;;;2.90;65.70;;;;;;5054780;28;20032;-69
2022/03/31 02:46:53;;;;;;;11.23;4.30;;;2.80;66.00;;;;;;5056611;28;20043;-69
2022/03/31 02:49:19;;;;;;;14.25;4.72;;;2.80;66.10;;;;;;5054405;28;20605;-69
2022/03/31 02:51:44;;;;;;;13.57;4.40;;;2.80;66.00;;;;;;5057008;28;20492;-68
2022/03/31 02:56:55;;;;;;;8.02;4.55;;;2.60;66.30;;;;;;5059096;28;20056;-69
2022/03/31 02:59:20;;;;;;;7.93;4.15;;;2.60;66.30;;;;;;5058974;28;20481;-69
2022/03/31 03:01:47;;;;;;;8.48;4.15;;;2.70;66.30;;;;;;5038842;28;20033;-71
2022/03/31 03:04:13;;;;;;;7.55;4.43;;;2.70;66.30;;;;;;5055463;28;20378;-68
2022/03/31 03:06:40;;;;;;;5.90;3.42;;;2.70;66.30;;;;;;5056202;28;20488;-69
2022/03/31 03:09:07;;;;;;;6.28;3.75;;;2.70;66.00;;;;;;5056723;28;20102;-68
2022/03/31 03:11:33;;;;;;;7.53;3.95;;;2.60;66.20;;;;;;5050747;28;20040;-69
2022/03/31 03:13:59;;;;;;;9.27;4.45;;;2.70;66.20;;;;;;5059270;28;20119;-69
2022/03/31 03:16:25;;;;;;;9.60;4.60;;;2.60;65.90;;;;;;5059688;28;20135;-68
2022/03/31 03:18:52;;;;;;;9.82;3.90;;;2.60;66.10;;;;;;5060015;28;20039;-68
2022/03/31 03:21:19;;;;;;;10.25;4.07;;;2.50;66.30;;;;;;5060034;28;20028;-70
2022/03/31 03:23:45;;;;;;;8.15;4.13;;;2.50;66.50;;;;;;5057655;28;20075;-69
2022/03/31 03:26:11;;;;;;;7.32;3.88;;;2.50;66.50;;;;;;5058321;28;20119;-69
2022/03/31 03:28:37;;;;;;;7.68;3.47;;;2.50;66.50;;;;;;5059221;28;20514;-69
2022/03/31 03:31:06;;;;;;;5.40;3.20;;;2.50;66.80;;;;;;5056190;28;20043;-69
2022/03/31 03:33:32;;;;;;;7.57;3.72;;;2.40;66.30;;;;;;5057676;28;20106;-71
2022/03/31 03:35:59;;;;;;;4.75;2.67;;;2.40;66.50;;;;;;5057253;28;20039;-69
2022/03/31 03:38:25;;;;;;;12.18;4.40;;;2.40;66.80;;;;;;5060045;28;20071;-69
2022/03/31 03:40:51;;;;;;;8.95;3.45;;;2.40;66.40;;;;;;5038837;28;20433;-69
2022/03/31 03:43:17;;;;;;;6.88;3.35;;;2.30;67.00;;;;;;5056249;28;20028;-70
2022/03/31 03:45:43;;;;;;;5.85;2.95;;;2.30;66.70;;;;;;5053867;28;20068;-69
2022/03/31 03:48:11;;;;;;;5.65;3.60;;;2.20;66.30;;;;;;5056152;28;20145;-69
2022/03/31 03:50:38;;;;;;;8.93;3.40;;;2.20;66.50;;;;;;5057593;28;20040;-69
2022/03/31 03:53:08;;;;;;;4.55;2.90;;;2.20;66.60;;;;;;5041273;28;20040;-69
2022/03/31 03:55:36;;;;;;;6.35;3.00;;;2.10;66.60;;;;;;5061751;28;20036;-69
2022/03/31 03:58:03;;;;;;;8.68;3.42;;;2.10;66.80;;;;;;5061838;28;20031;-69
2022/03/31 04:00:29;;;;;;;9.45;3.30;;;2.00;66.70;;;;;;5062357;28;20051;-69
2022/03/31 04:02:55;;;;;;;9.32;3.30;;;2.00;66.90;;;;;;5054441;28;20040;-69
2022/03/31 04:05:21;;;;;;;7.03;3.42;;;1.90;66.90;;;;;;5044541;28;20036;-70
2022/03/31 04:07:48;;;;;;;6.60;2.95;;;2.00;66.90;;;;;;5059435;28;20067;-69
2022/03/31 04:10:14;;;;;;;7.63;3.55;;;1.90;66.70;;;;;;5062006;28;20123;-69
2022/03/31 04:12:40;;;;;;;6.15;2.85;;;1.80;66.90;;;;;;5062133;28;20041;-69
2022/03/31 04:15:07;;;;;;;4.20;2.83;;;1.80;67.30;;;;;;5062025;28;20047;-68
2022/03/31 04:17:34;;;;;;;8.00;3.35;;;1.80;67.20;;;;;;5063053;28;20479;-69
2022/03/31 04:20:00;;;;;;;8.38;3.47;;;1.80;67.00;;;;;;5036019;28;20912;-69
2022/03/31 04:22:26;;;;;;;7.80;3.15;;;1.80;67.10;;;;;;5058512;28;20123;-69
2022/03/31 04:24:51;;;;;;;6.88;3.17;;;1.80;66.60;;;;;;5060922;28;20039;-69
2022/03/31 04:27:17;;;;;;;10.48;3.33;;;1.80;66.80;;;;;;5048706;28;20603;-69
2022/03/31 04:29:43;;;;;;;6.90;2.83;;;1.70;66.80;;;;;;5061696;28;20115;-69
2022/03/31 04:32:09;;;;;;;7.57;2.65;;;1.60;66.80;;;;;;5061420;28;20553;-69
2022/03/31 04:34:35;;;;;;;4.90;3.15;;;1.60;66.80;;;;;;5062331;28;20037;-69
2022/03/31 04:37:02;;;;;;;6.50;3.00;;;1.60;66.30;;;;;;5059537;28;20411;-69
2022/03/31 04:39:27;;;;;;;5.07;2.80;;;1.70;66.50;;;;;;5058890;28;20024;-69
2022/03/31 04:41:53;;;;;;;4.70;2.97;;;1.70;66.30;;;;;;5059309;28;20319;-69
2022/03/31 04:44:20;;;;;;;8.23;3.22;;;1.60;67.00;;;;;;5061818;28;20032;-69
2022/03/31 04:46:46;;;;;;;5.88;3.05;;;1.60;66.30;;;;;;5061376;28;20175;-69
2022/03/31 04:49:12;;;;;;;4.22;2.65;;;1.70;66.30;;;;;;5058975;28;20120;-69
2022/03/31 04:51:38;;;;;;;9.70;3.28;;;1.60;66.10;;;;;;5062085;28;20492;-70
2022/03/31 04:54:04;;;;;;;5.53;3.58;;;1.60;66.00;;;;;;5062216;28;20043;-70
2022/03/31 04:56:30;;;;;;;8.60;2.78;;;1.60;66.00;;;;;;5059940;28;20766;-69
2022/03/31 04:58:56;;;;;;;8.27;3.10;;;1.60;66.10;;;;;;5058470;28;20539;-69
2022/03/31 05:01:23;;;;;;;5.53;2.75;;;1.60;66.30;;;;;;5060597;28;20032;-69
2022/03/31 05:03:49;;;;;;;8.50;3.70;;;1.60;66.10;;;;;;5042345;28;20048;-69
2022/03/31 05:06:15;;;;;;;6.45;3.33;;;1.70;65.80;;;;;;5059222;28;20098;-69
2022/03/31 05:08:42;;;;;;;11.15;4.07;;;1.70;65.50;;;;;;5059444;28;20091;-69
2022/03/31 05:11:08;;;;;;;7.78;3.58;;;1.70;65.10;;;;;;5060740;28;20033;-69
2022/03/31 05:13:33;;;;;;;7.45;3.40;;;1.70;65.70;;;;;;5060773;28;20085;-69
2022/03/31 05:15:59;;;;;;;5.38;3.00;;;1.80;65.40;;;;;;5056888;28;20111;-69
2022/03/31 05:18:25;;;;;;;6.15;2.65;;;1.70;65.00;;;;;;5042966;28;20040;-70
2022/03/31 05:20:51;;;;;;;4.65;3.03;;;1.80;65.10;;;;;;5061864;28;20036;-69
2022/03/31 05:23:17;;;;;;;10.07;3.00;;;1.80;65.00;;;;;;5058732;28;20083;-69
2022/03/31 05:25:44;;;;;;;11.65;3.78;;;1.90;65.00;;;;;;5060155;28;20419;-69
2022/03/31 05:28:11;;;;;;;7.55;2.97;;;2.00;64.40;;;;;;5060274;28;20763;-69
2022/03/31 05:30:37;;;;;;;7.20;3.13;;;2.00;64.40;;;;;;5060749;28;20032;-70
2022/03/31 05:33:04;;;;;;;5.78;3.10;;;2.00;64.20;;;;;;5060097;28;20891;-69
2022/03/31 05:35:30;;;;;;;4.38;2.58;;;2.00;63.90;;;;;;5061068;28;20115;-69
2022/03/31 05:37:56;;;;;;;6.68;2.92;;;2.00;63.70;;;;;;5058607;28;20113;-69
2022/03/31 05:40:22;;;;;;;5.53;3.42;;;2.10;63.80;;;;;;5057448;28;20044;-69
2022/03/31 05:42:48;;;;;;;5.68;3.30;;;2.20;63.50;;;;;;5057599;28;20036;-69
2022/03/31 05:45:15;;;;;;;5.65;2.97;;;2.10;63.30;;;;;;5059612;28;20087;-69
2022/03/31 05:47:42;;;;;;;6.05;3.20;;;2.20;63.90;;;;;;5061039;28;20025;-69
2022/03/31 05:50:09;;;;;;;4.88;2.85;;;2.20;63.40;;;;;;5061079;28;20047;-69
2022/03/31 05:52:38;;;;;;;6.20;3.05;;;2.30;63.00;;;;;;5058138;28;20078;-69
2022/03/31 05:55:09;;;;;;;7.65;2.70;;;2.30;62.70;;;;;;5052021;28;20111;-69
2022/03/31 05:57:36;;;;;;;5.47;3.20;;;2.40;62.40;;;;;;5055313;28;20027;-69
2022/03/31 06:00:05;;;;;;;6.55;2.97;;;2.50;62.30;;;;;;5060569;28;20123;-69
2022/03/31 06:02:37;;;;;;;7.20;2.92;;;2.60;61.30;;;;;;5059139;28;20123;-69
2022/03/31 06:05:03;;;;;;;7.57;3.70;;;2.60;61.50;;;;;;5059136;28;20040;-69
2022/03/31 06:07:29;;;;;;;6.03;2.55;;;2.80;61.10;;;;;;5042675;28;20024;-69
2022/03/31 06:09:55;;;;;;;5.50;2.40;;;2.90;60.40;;;;;;5051839;28;20039;-69
2022/03/31 06:12:20;;;;;;;4.28;2.40;;;3.00;59.80;;;;;;5056822;28;20090;-69
2022/03/31 06:14:46;;;;;;;5.72;2.63;;;3.00;59.80;;;;;;5056071;28;20033;-69
2022/03/31 06:17:12;;;;;;;8.40;2.88;;;3.00;59.60;;;;;;5056002;28;20048;-69
2022/03/31 06:19:38;;;;;;;6.15;2.95;;;3.10;59.70;;;;;;5041852;28;20029;-69
2022/03/31 06:22:04;;;;;;;6.93;3.40;;;3.30;59.10;;;;;;5058425;28;20438;-69
2022/03/31 06:24:30;;;;;;;3.08;2.50;;;3.40;58.80;;;;;;5059501;28;20143;-69
2022/03/31 06:26:57;;;;;;;4.60;2.70;;;3.40;58.80;;;;;;5058197;28;20039;-69
2022/03/31 06:29:25;;;;;;;4.40;2.95;;;3.50;58.50;;;;;;5050548;28;20047;-69
2022/03/31 06:31:53;;;;;;;5.03;2.80;;;3.50;58.30;;;;;;5034468;28;20044;-69
2022/03/31 06:34:20;;;;;;;5.97;3.03;;;3.40;58.60;;;;;;5057123;28;20182;-69
2022/03/31 06:36:46;;;;;;;6.60;2.70;;;3.40;58.60;;;;;;5058492;28;20043;-69
2022/03/31 06:39:13;;;;;;;4.57;2.53;;;3.50;58.40;;;;;;5054878;28;20673;-69
2022/03/31 06:41:39;;;;;;;5.85;3.20;;;3.50;58.60;;;;;;5054908;28;20392;-69
2022/03/31 06:44:12;;;;;;;4.57;2.90;;;3.50;58.10;;;;;;5056527;28;20874;-70
2022/03/31 06:46:42;;;;;;;7.03;2.53;;;3.60;58.20;;;;;;5035593;28;20029;-70
2022/03/31 06:49:09;;;;;;;7.35;2.78;;;3.70;57.70;;;;;;5056018;28;20590;-69
2022/03/31 06:51:34;;;;;;;4.07;2.47;;;4.10;57.50;;;;;;5038917;28;20040;-69
2022/03/31 06:54:00;;;;;;;7.20;3.13;;;4.40;56.00;;;;;;5050214;28;20028;-69
2022/03/31 06:56:29;;;;;;;11.75;2.97;;;4.70;55.10;;;;;;5055866;28;20761;-69
2022/03/31 06:58:56;;;;;;;5.07;2.88;;;4.70;54.00;;;;;;5055086;28;20033;-69
2022/03/31 07:01:23;;;;;;;4.45;2.85;;;4.80;54.00;;;;;;5055649;28;20096;-69
2022/03/31 07:03:49;;;;;;;8.00;3.75;;;5.00;54.10;;;;;;5062527;28;20047;-69
2022/03/31 07:06:15;;;;;;;4.82;3.13;;;5.70;52.60;;;;;;5059148;28;20849;-68
2022/03/31 07:08:40;;;;;;;8.75;3.33;;;6.80;49.80;;;;;;5057697;28;20140;-69
2022/03/31 07:11:07;;;;;;;8.90;3.08;;;7.40;47.30;;;;;;5054756;28;20186;-69
2022/03/31 07:13:33;;;;;;;6.88;3.47;;;7.90;46.50;;;;;;5055923;28;20391;-69
2022/03/31 07:15:59;;;;;;;7.65;3.10;;;8.40;45.30;;;;;;5055978;28;20043;-69
2022/03/31 07:18:25;;;;;;;5.05;2.72;;;8.80;44.90;;;;;;5058870;28;20029;-69
2022/03/31 07:20:50;;;;;;;6.78;3.40;;;9.20;43.50;;;;;;5059285;28;20136;-69
2022/03/31 07:23:23;;;;;;;4.57;2.38;;;9.40;42.70;;;;;;5063427;28;20127;-69
2022/03/31 07:25:53;;;;;;;5.50;3.10;;;9.30;42.90;;;;;;5049224;28;20568;-69
2022/03/31 07:28:19;;;;;;;6.65;3.10;;;9.30;43.50;;;;;;5058117;28;20040;-69
2022/03/31 07:30:46;;;;;;;3.95;2.85;;;9.10;43.40;;;;;;5062276;28;20058;-69
2022/03/31 07:33:11;;;;;;;9.70;3.58;;;9.00;43.70;;;;;;5047824;28;20047;-68
2022/03/31 07:35:37;;;;;;;6.25;3.40;;;9.00;43.70;;;;;;5064840;28;20028;-68
2022/03/31 07:38:07;;;;;;;6.22;3.10;;;9.10;43.60;;;;;;5062925;28;20475;-68
2022/03/31 07:40:33;;;;;;;5.85;3.20;;;9.40;42.70;;;;;;5062613;28;20028;-68
2022/03/31 07:42:59;;;;;;;11.70;3.40;;;9.50;42.00;;;;;;5063077;28;20373;-68
2022/03/31 07:45:25;;;;;;;8.10;3.03;;;9.30;42.60;;;;;;5043271;28;20412;-69
2022/03/31 07:47:51;;;;;;;8.25;3.20;;;9.60;42.40;;;;;;5059557;28;20044;-69
2022/03/31 07:50:18;;;;;;;6.05;3.75;;;9.70;41.70;;;;;;5062309;28;20082;-68
2022/03/31 07:52:44;;;;;;;10.57;3.15;;;9.80;42.40;;;;;;5059140;28;20040;-67
2022/03/31 07:55:12;;;;;;;7.60;3.20;;;9.90;41.60;;;;;;5059507;28;20031;-70
2022/03/31 07:57:39;;;;;;;7.20;3.15;;;10.60;41.30;;;;;;5062369;28;20039;-69
2022/03/31 08:00:08;;;;;;;5.40;3.83;;;11.60;38.40;;;;;;5042335;28;20040;-69
2022/03/31 08:02:41;;;;;;;7.43;3.78;;;12.00;37.70;;;;;;5060363;28;20615;-69
2022/03/31 08:05:09;;;;;;;4.65;3.20;;;12.10;36.60;;;;;;5059282;28;20071;-69
2022/03/31 08:07:36;;;;;;;6.03;3.90;;;12.50;36.80;;;;;;5061981;28;20039;-70
2022/03/31 08:10:03;;;;;;;5.05;3.63;;;13.00;35.80;;;;;;5042103;28;20128;-69
2022/03/31 08:12:28;;;;;;;8.70;3.90;;;13.50;35.20;;;;;;5063764;28;20037;-70
2022/03/31 08:14:54;;;;;;;5.35;3.30;;;13.60;34.30;;;;;;5046838;28;20035;-70
2022/03/31 08:17:20;;;;;;;6.50;3.75;;;13.20;34.70;;;;;;5061374;28;20032;-70
2022/03/31 08:19:47;;;;;;;8.85;4.50;;;13.90;34.80;;;;;;5063015;28;20037;-70
2022/03/31 08:22:13;;;;;;;6.38;3.75;;;14.80;33.10;;;;;;5059864;28;20057;-69
2022/03/31 08:24:39;;;;;;;9.23;4.07;;;15.00;32.40;;;;;;5060461;28;20037;-70
2022/03/31 08:27:05;;;;;;;7.65;4.00;;;15.00;32.40;;;;;;5061010;28;20097;-71
2022/03/31 08:29:31;;;;;;;6.43;4.13;;;14.80;32.70;;;;;;5061180;28;20396;-72
2022/03/31 08:31:57;;;;;;;7.00;4.05;;;14.70;32.60;;;;;;5037851;28;20084;-70
2022/03/31 08:34:23;;;;;;;6.80;3.72;;;14.00;33.00;;;;;;5058950;28;20442;-71
2022/03/31 08:36:49;;;;;;;7.93;4.80;;;13.30;34.60;;;;;;5043836;28;20036;-71
2022/03/31 08:39:15;;;;;;;6.93;3.60;;;13.10;35.40;;;;;;5059060;28;20028;-70
2022/03/31 08:41:44;;;;;;;6.95;3.90;;;12.90;35.80;;;;;;5061521;28;20039;-71
2022/03/31 08:44:13;;;;;;;7.50;4.00;;;12.70;36.20;;;;;;5054888;28;20052;-71
2022/03/31 08:46:39;;;;;;;7.75;3.80;;;13.10;35.30;;;;;;5056052;28;20078;-71
2022/03/31 08:49:08;;;;;;;9.35;5.03;;;15.00;33.40;;;;;;5058460;28;20056;-70
2022/03/31 08:51:34;;;;;;;8.27;4.50;;;16.70;30.40;;;;;;5062030;28;20127;-71
2022/03/31 08:54:00;;;;;;;9.18;4.20;;;17.30;28.90;;;;;;5058028;28;20400;-71
2022/03/31 08:56:26;;;;;;;7.80;4.13;;;16.40;30.00;;;;;;5061008;28;20145;-70
2022/03/31 08:58:52;;;;;;;8.13;4.53;;;16.20;31.20;;;;;;5061420;28;20058;-71
2022/03/31 09:01:18;;;;;;;9.45;4.22;;;16.20;30.10;;;;;;5054787;28;20032;-71
2022/03/31 09:03:44;;;;;;;10.20;4.32;;;16.70;29.80;;;;;;5059388;28;20871;-71
2022/03/31 09:06:23;;;;;;;8.48;4.22;;;17.20;29.20;;;;;;5059460;28;20401;-70
2022/03/31 09:09:01;;;;;;;7.82;4.28;;;17.60;29.20;;;;;;5061172;28;20044;-71
2022/03/31 09:11:35;;;;;;;9.48;4.00;;;18.60;28.60;;;;;;5058053;28;20033;-71
2022/03/31 09:14:02;;;;;;;7.90;4.25;;;18.60;27.50;;;;;;5061019;28;20211;-71
2022/03/31 09:16:40;;;;;;;6.72;3.78;;;17.90;28.10;;;;;;5060667;28;20819;-71
2022/03/31 09:19:11;;;;;;;6.75;3.90;;;17.00;29.10;;;;;;5062054;28;20106;-71
2022/03/31 09:21:57;;;;;;;5.78;4.43;;;16.80;29.20;;;;;;5055690;28;20032;-70
2022/03/31 09:24:26;;;;;;;5.82;3.70;;;16.80;29.50;;;;;;5059125;28;20039;-66
2022/03/31 09:26:53;;;;;;;8.15;4.90;;;16.70;29.20;;;;;;5059329;28;20930;-71
2022/03/31 09:29:23;;;;;;;7.53;3.80;;;16.50;29.60;;;;;;5060276;28;20031;-67
2022/03/31 09:31:51;;;;;;;7.68;3.67;;;15.60;30.30;;;;;;5057334;28;20048;-70
2022/03/31 09:34:18;;;;;;;6.05;3.42;;;14.60;32.50;;;;;;5060053;28;20068;-70
2022/03/31 09:36:52;;;;;;;8.23;3.95;;;13.90;33.50;;;;;;5061304;28;20028;-70
2022/03/31 09:39:19;;;;;;;15.55;4.68;;;14.00;33.80;;;;;;5055073;28;20025;-70
2022/03/31 09:41:48;;;;;;;5.93;3.50;;;13.70;34.10;;;;;;5058902;28;20047;-69
2022/03/31 09:44:16;;;;;;;5.95;3.67;;;13.10;34.40;;;;;;5058916;28;20040;-71
2022/03/31 09:46:43;;;;;;;9.73;4.00;;;14.30;32.90;;;;;;5060837;28;20477;-71
2022/03/31 09:49:16;;;;;;;5.53;3.30;;;15.10;31.60;;;;;;5056436;28;20717;-70
2022/03/31 09:51:44;;;;;;;10.68;3.80;;;15.70;31.00;;;;;;5057835;28;20097;-70
2022/03/31 09:54:11;;;;;;;7.55;3.85;;;15.40;30.10;;;;;;5060401;28;20555;-70
2022/03/31 09:56:39;;;;;;;6.13;3.65;;;14.60;32.10;;;;;;5060872;28;20039;-71
2022/03/31 09:59:07;;;;;;;7.63;3.85;;;14.80;32.90;;;;;;5058808;28;20052;-71
2022/03/31 10:01:34;;;;;;;7.80;4.15;;;15.70;31.40;;;;;;5058876;28;20036;-71
2022/03/31 10:04:02;;;;;;;8.50;4.00;;;15.60;31.20;;;;;;5054548;28;20036;-71
2022/03/31 10:06:28;;;;;;;9.98;3.85;;;15.00;32.10;;;;;;5058534;28;20036;-70
2022/03/31 10:08:57;;;;;;;8.82;3.00;;;14.90;32.40;;;;;;5057560;28;20048;-71
2022/03/31 10:11:24;;;;;;;10.25;4.00;;;17.00;30.00;;;;;;5058481;28;20532;-71
2022/03/31 10:13:53;;;;;;;4.97;3.15;;;19.40;27.20;;;;;;5059285;28;20043;-71
2022/03/31 10:16:29;;;;;;;8.30;3.85;;;19.80;26.70;;;;;;5057102;28;20040;-71
2022/03/31 10:18:55;;;;;;;6.05;3.83;;;20.30;26.50;;;;;;5059600;28;20036;-72
2022/03/31 10:21:29;;;;;;;6.47;3.40;;;19.60;27.20;;;;;;5044447;28;20633;-70
2022/03/31 10:26:40;;;;;;;8.13;3.60;;;18.70;27.10;;;;;;5055499;28;20090;-71
2022/03/31 10:29:11;;;;;;;6.68;3.40;;;18.40;27.80;;;;;;5046454;28;20083;-70
2022/03/31 10:31:47;;;;;;;7.90;3.50;;;18.40;27.70;;;;;;5059322;28;20037;-71
2022/03/31 10:34:14;;;;;;;8.33;3.93;;;17.80;28.20;;;;;;5057027;28;20068;-71
2022/03/31 10:36:49;;;;;;;7.22;3.30;;;18.30;28.10;;;;;;5049509;28;20285;-72
2022/03/31 10:39:23;;;;;;;8.57;3.47;;;18.50;27.60;;;;;;5051679;28;20086;-71
2022/03/31 10:42:09;;;;;;;7.60;3.70;;;18.50;27.80;;;;;;5058338;28;20028;-71
2022/03/31 10:44:35;;;;;;;8.68;3.92;;;18.40;28.20;;;;;;5055427;28;20076;-71
2022/03/31 10:47:06;;;;;;;4.47;3.30;;;19.20;27.20;;;;;;5058122;28;20151;-71
2022/03/31 10:49:34;;;;;;;7.63;4.05;;;18.10;28.10;;;;;;5059641;28;20043;-71
2022/03/31 10:52:12;;;;;;;7.20;3.80;;;17.30;28.70;;;;;;5057944;28;20032;-71
2022/03/31 10:54:38;;;;;;;15.80;3.72;;;16.30;30.40;;;;;;5056911;28;20039;-71
2022/03/31 10:57:11;;;;;;;5.05;3.25;;;16.40;30.80;;;;;;5053926;28;20029;-67
2022/03/31 10:59:38;;;;;;;6.30;3.70;;;16.50;30.60;;;;;;5054045;28;20040;-70
2022/03/31 11:02:08;;;;;;;5.78;3.47;;;17.70;28.80;;;;;;5058304;28;20071;-70
2022/03/31 11:04:52;;;;;;;4.75;3.50;;;17.60;29.30;;;;;;5059638;28;20040;-68
2022/03/31 11:07:24;;;;;;;7.82;3.72;;;16.30;29.90;;;;;;5059008;28;20123;-70
2022/03/31 11:10:13;;;;;;;11.50;4.10;;;14.60;32.50;;;;;;5053251;28;20040;-68
2022/03/31 11:12:40;;;;;;;5.38;3.25;;;12.90;35.50;;;;;;5058371;28;20117;-71
2022/03/31 11:15:11;;;;;;;6.68;3.90;;;11.70;37.40;;;;;;5055710;28;20091;-71
2022/03/31 11:17:38;;;;;;;10.02;3.92;;;11.40;38.70;;;;;;5057441;28;20033;-71
2022/03/31 11:20:17;;;;;;;8.23;3.67;;;11.30;39.00;;;;;;5057316;28;20044;-71
2022/03/31 11:22:51;;;;;;;7.55;3.72;;;11.70;38.50;;;;;;5056177;28;20040;-71
2022/03/31 11:25:18;;;;;;;9.95;3.38;;;12.20;37.40;;;;;;5056134;28;20048;-68
2022/03/31 11:27:46;;;;;;;6.53;3.42;;;12.00;37.20;;;;;;5057903;28;20044;-73
2022/03/31 11:30:23;;;;;;;6.55;3.67;;;11.90;37.50;;;;;;5039367;28;20400;-71
2022/03/31 11:32:55;;;;;;;9.40;3.78;;;11.80;37.20;;;;;;5054416;28;20047;-71
2022/03/31 11:35:24;;;;;;;6.22;3.53;;;11.60;37.90;;;;;;5054247;28;20064;-72
2022/03/31 11:38:00;;;;;;;9.95;3.28;;;11.70;38.60;;;;;;5056814;28;20032;-72
2022/03/31 11:40:37;;;;;;;8.57;3.90;;;12.00;38.10;;;;;;5054952;28;20047;-72
2022/03/31 11:43:08;;;;;;;5.85;3.22;;;12.00;37.30;;;;;;5055196;28;20040;-71
2022/03/31 11:45:43;;;;;;;5.88;3.53;;;11.70;37.80;;;;;;5058161;28;20105;-73
2022/03/31 11:48:11;;;;;;;10.57;3.70;;;11.60;38.20;;;;;;5058440;28;20691;-72
2022/03/31 11:50:39;;;;;;;6.35;3.50;;;11.40;38.00;;;;;;5056405;28;20055;-72
2022/03/31 11:53:23;;;;;;;8.02;3.40;;;11.20;39.40;;;;;;5054357;28;20051;-72
2022/03/31 11:56:15;;;;;;;7.07;3.45;;;11.30;39.00;;;;;;5053506;28;20115;-68
2022/03/31 11:58:57;;;;;;;6.40;4.00;;;11.40;38.90;;;;;;5055431;28;20119;-72
2022/03/31 12:01:47;;;;;;;5.95;3.55;;;11.10;39.30;;;;;;5057099;28;20111;-68
2022/03/31 12:04:20;;;;;;;8.48;4.22;;;10.70;39.70;;;;;;5045346;28;20024;-71
2022/03/31 12:06:51;;;;;;;8.98;3.88;;;10.40;40.80;;;;;;5058063;28;20040;-71
2022/03/31 12:09:17;;;;;;;6.57;4.25;;;10.40;41.10;;;;;;5059415;28;20454;-70
2022/03/31 12:11:43;;;;;;;9.02;3.92;;;10.30;41.00;;;;;;5041824;28;20024;-71
2022/03/31 12:14:10;;;;;;;7.55;4.20;;;10.40;41.50;;;;;;5059776;28;20036;-70
2022/03/31 12:16:50;;;;;;;14.02;4.10;;;10.40;41.00;;;;;;5061160;28;20123;-71
2022/03/31 12:19:18;;;;;;;7.25;3.70;;;10.20;41.40;;;;;;5060764;28;20041;-70
2022/03/31 12:21:51;;;;;;;7.07;4.07;;;10.00;41.60;;;;;;5059578;28;20560;-70
2022/03/31 12:24:18;;;;;;;10.02;4.60;;;9.90;42.40;;;;;;5061773;28;20036;-68
2022/03/31 12:27:01;;;;;;;9.80;4.38;;;9.80;43.10;;;;;;5058332;28;20036;-69
2022/03/31 12:29:31;;;;;;;6.68;3.60;;;10.00;43.00;;;;;;5059484;28;20075;-68
2022/03/31 12:32:06;;;;;;;6.68;4.45;;;9.90;42.70;;;;;;5058572;28;20037;-68
2022/03/31 12:34:35;;;;;;;8.55;4.28;;;9.90;42.90;;;;;;5059770;28;20645;-69
2022/03/31 12:37:01;;;;;;;11.48;4.80;;;9.90;42.70;;;;;;5060986;28;20045;-69
2022/03/31 12:39:28;;;;;;;8.80;3.83;;;9.90;42.30;;;;;;5063503;28;20461;-68
2022/03/31 12:41:58;;;;;;;7.18;4.55;;;10.10;42.30;;;;;;5058528;28;20052;-69
2022/03/31 12:44:28;;;;;;;9.10;4.10;;;10.20;42.20;;;;;;5060655;28;20036;-70
2022/03/31 12:46:59;;;;;;;7.88;3.60;;;10.20;42.10;;;;;;5043378;28;20139;-72
2022/03/31 12:49:26;;;;;;;6.65;4.22;;;10.20;42.40;;;;;;5056989;28;20037;-71
2022/03/31 12:51:58;;;;;;;5.18;3.75;;;10.10;42.00;;;;;;5058588;28;20067;-73
2022/03/31 12:54:34;;;;;;;7.68;4.63;;;10.00;42.10;;;;;;5043558;28;20040;-70
2022/03/31 12:57:17;;;;;;;8.23;3.67;;;9.90;42.50;;;;;;5059776;28;20033;-68
2022/03/31 12:59:44;;;;;;;5.68;3.85;;;10.20;42.80;;;;;;5058772;28;20869;-69
2022/03/31 13:02:12;;;;;;;7.00;3.70;;;10.10;42.50;;;;;;5058916;28;20025;-69